createdAt,value
2023-05-16T00:01:12.721Z,99.90
2023-05-16T00:03:42.395Z,99.90
2023-05-16T00:06:11.817Z,99.90
2023-05-16T00:08:39.847Z,99.90
2023-05-16T00:11:07.794Z,99.90
2023-05-16T00:13:35.805Z,99.90
2023-05-16T00:16:04.901Z,99.90
2023-05-16T00:18:32.882Z,99.90
2023-05-16T00:21:01.614Z,99.90
2023-05-16T00:23:31.036Z,99.90
2023-05-16T00:25:59.063Z,99.90
2023-05-16T00:28:27.115Z,99.90
2023-05-16T00:30:55.035Z,99.90
2023-05-16T00:33:23.135Z,99.90
2023-05-16T00:35:51.629Z,99.90
2023-05-16T00:38:19.591Z,99.90
2023-05-16T00:40:48.904Z,99.90
2023-05-16T00:43:16.892Z,99.90
2023-05-16T00:45:45.134Z,99.90
2023-05-16T00:48:15.193Z,99.90
2023-05-16T00:50:43.673Z,99.90
2023-05-16T00:53:12.124Z,99.90
2023-05-16T00:55:40.303Z,99.90
2023-05-16T00:58:11.056Z,99.90
2023-05-16T01:00:39.270Z,99.90
2023-05-16T01:03:07.480Z,99.90
2023-05-16T01:05:35.715Z,99.90
2023-05-16T01:08:03.722Z,99.90
2023-05-16T01:10:51.658Z,99.90
2023-05-16T01:13:26.443Z,99.90
2023-05-16T01:16:01.351Z,99.90
2023-05-16T01:18:38.305Z,99.90
2023-05-16T01:21:13.443Z,99.90
2023-05-16T01:23:52.450Z,99.90
2023-05-16T01:26:23.601Z,99.90
2023-05-16T01:28:52.800Z,99.90
2023-05-16T01:31:21.285Z,99.90
2023-05-16T01:33:49.871Z,99.90
2023-05-16T01:36:27.148Z,99.90
2023-05-16T01:39:03.964Z,99.90
2023-05-16T01:41:42.324Z,99.90
2023-05-16T01:44:18.859Z,99.90
2023-05-16T01:46:48.757Z,99.90
2023-05-16T01:49:21.325Z,99.90
2023-05-16T01:51:53.412Z,99.90
2023-05-16T01:54:24.516Z,99.90
2023-05-16T01:56:55.837Z,99.90
2023-05-16T01:59:25.947Z,99.90
2023-05-16T02:01:55.148Z,99.90
2023-05-16T02:04:24.220Z,99.90
2023-05-16T02:06:52.985Z,99.90
2023-05-16T02:09:20.933Z,99.90
2023-05-16T02:11:48.908Z,99.90
2023-05-16T02:14:18.229Z,99.90
2023-05-16T02:16:46.340Z,99.90
2023-05-16T02:19:14.469Z,99.90
2023-05-16T02:21:42.538Z,99.90
2023-05-16T02:24:10.471Z,99.90
2023-05-16T02:26:38.426Z,99.90
2023-05-16T02:29:06.819Z,99.90
2023-05-16T02:31:36.398Z,99.90
2023-05-16T02:34:04.575Z,99.90
2023-05-16T02:36:34.395Z,99.90
2023-05-16T02:39:02.351Z,99.90
2023-05-16T02:41:30.305Z,99.90
2023-05-16T02:43:58.602Z,99.90
2023-05-16T02:46:28.352Z,99.90
2023-05-16T02:48:58.376Z,99.90
2023-05-16T02:51:28.499Z,99.90
2023-05-16T02:53:59.604Z,99.90
2023-05-16T02:56:27.718Z,99.90
2023-05-16T02:58:56.496Z,99.90
2023-05-16T03:01:24.519Z,99.90
2023-05-16T03:03:52.735Z,99.90
2023-05-16T03:06:22.313Z,99.90
2023-05-16T03:08:50.310Z,99.90
2023-05-16T03:11:20.779Z,99.90
2023-05-16T03:13:49.004Z,99.90
2023-05-16T03:16:17.166Z,99.90
2023-05-16T03:18:45.363Z,99.90
2023-05-16T03:21:13.361Z,99.90
2023-05-16T03:23:42.747Z,99.90
2023-05-16T03:26:10.733Z,99.90
2023-05-16T03:28:38.859Z,99.90
2023-05-16T03:31:06.965Z,99.90
2023-05-16T03:33:34.986Z,99.90
2023-05-16T03:36:03.087Z,99.90
2023-05-16T03:38:31.054Z,99.90
2023-05-16T03:41:00.733Z,99.90
2023-05-16T03:43:28.973Z,99.90
2023-05-16T03:45:56.986Z,99.90
2023-05-16T03:48:25.077Z,99.90
2023-05-16T03:50:53.132Z,99.90
2023-05-16T03:53:21.164Z,99.90
2023-05-16T03:55:49.280Z,99.90
2023-05-16T03:58:18.735Z,99.90
2023-05-16T04:00:47.011Z,99.90
2023-05-16T04:03:15.204Z,99.90
2023-05-16T04:05:43.432Z,99.90
2023-05-16T04:08:11.580Z,99.90
2023-05-16T04:10:39.600Z,99.90
2023-05-16T04:13:07.610Z,99.90
2023-05-16T04:15:37.010Z,99.90
2023-05-16T04:18:05.284Z,99.90
2023-05-16T04:20:33.346Z,99.90
2023-05-16T04:23:01.742Z,99.90
2023-05-16T04:25:29.961Z,99.90
2023-05-16T04:27:58.328Z,99.90
2023-05-16T04:30:26.398Z,99.90
2023-05-16T04:32:57.276Z,99.90
2023-05-16T04:35:25.779Z,99.90
2023-05-16T04:37:53.937Z,99.90
2023-05-16T04:40:22.398Z,99.90
2023-05-16T04:42:50.916Z,99.90
2023-05-16T04:45:19.074Z,99.90
2023-05-16T04:47:47.070Z,99.90
2023-05-16T04:50:18.034Z,99.90
2023-05-16T04:52:46.691Z,99.90
2023-05-16T04:55:14.669Z,99.90
2023-05-16T04:57:42.570Z,99.90
2023-05-16T05:00:12.328Z,99.90
2023-05-16T05:02:40.670Z,99.90
2023-05-16T05:05:10.146Z,99.90
2023-05-16T05:07:39.527Z,99.90
2023-05-16T05:10:08.697Z,99.90
2023-05-16T05:12:37.092Z,99.90
2023-05-16T05:15:06.426Z,99.90
2023-05-16T05:17:34.517Z,99.90
2023-05-16T05:20:03.944Z,99.90
2023-05-16T05:22:31.886Z,99.90
2023-05-16T05:25:01.625Z,99.90
2023-05-16T05:27:29.786Z,99.90
2023-05-16T05:29:57.691Z,99.90
2023-05-16T05:32:26.297Z,99.90
2023-05-16T05:34:54.294Z,99.90
2023-05-16T05:37:22.296Z,99.90
2023-05-16T05:39:50.450Z,99.90
2023-05-16T05:42:19.849Z,99.90
2023-05-16T05:44:47.766Z,99.90
2023-05-16T05:47:16.263Z,99.90
2023-05-16T05:49:44.334Z,99.90
2023-05-16T05:52:12.277Z,99.90
2023-05-16T05:54:40.261Z,99.90
2023-05-16T05:57:08.252Z,99.90
2023-05-16T05:59:37.636Z,99.70
2023-05-16T06:02:05.893Z,99.90
2023-05-16T06:04:33.883Z,99.40
2023-05-16T06:07:01.804Z,99.60
2023-05-16T06:09:29.745Z,98.80
2023-05-16T06:11:57.820Z,97.70
2023-05-16T06:14:25.842Z,97.90
2023-05-16T06:16:55.170Z,98.10
2023-05-16T06:19:23.942Z,97.40
2023-05-16T06:21:51.984Z,97.10
2023-05-16T06:24:19.960Z,97.80
2023-05-16T06:26:50.018Z,97.00
2023-05-16T06:29:18.373Z,97.30
2023-05-16T06:31:48.021Z,96.40
2023-05-16T06:34:17.687Z,96.20
2023-05-16T06:36:45.632Z,96.30
2023-05-16T06:39:13.682Z,95.30
2023-05-16T06:41:41.651Z,95.90
2023-05-16T06:44:09.617Z,95.70
2023-05-16T06:46:38.281Z,95.20
2023-05-16T06:49:07.480Z,95.70
2023-05-16T06:51:36.985Z,94.80
2023-05-16T06:54:05.414Z,94.50
2023-05-16T06:56:34.219Z,95.50
2023-05-16T06:59:02.484Z,95.90
2023-05-16T07:01:30.706Z,96.50
2023-05-16T07:03:59.059Z,96.90
2023-05-16T07:06:27.222Z,96.70
2023-05-16T07:08:56.796Z,96.60
2023-05-16T07:11:24.788Z,96.70
2023-05-16T07:13:52.836Z,96.40
2023-05-16T07:16:20.951Z,96.60
2023-05-16T07:18:49.101Z,95.80
2023-05-16T07:21:17.413Z,95.10
2023-05-16T07:23:45.416Z,94.90
2023-05-16T07:26:14.836Z,95.10
2023-05-16T07:28:42.970Z,95.30
2023-05-16T07:31:11.223Z,95.40
2023-05-16T07:33:39.200Z,95.40
2023-05-16T07:36:15.997Z,94.60
2023-05-16T07:38:45.734Z,95.30
2023-05-16T07:41:15.091Z,94.80
2023-05-16T07:43:43.214Z,94.70
2023-05-16T07:46:12.057Z,95.00
2023-05-16T07:48:40.177Z,94.70
2023-05-16T07:51:08.195Z,94.50
2023-05-16T07:53:36.343Z,94.70
2023-05-16T07:56:04.411Z,95.10
2023-05-16T07:58:33.852Z,94.40
2023-05-16T08:01:01.921Z,93.80
2023-05-16T08:03:30.171Z,94.00
2023-05-16T08:05:58.377Z,94.30
2023-05-16T08:08:26.571Z,94.10
2023-05-16T08:10:54.714Z,94.30
2023-05-16T08:13:22.979Z,94.70
2023-05-16T08:15:52.716Z,94.40
2023-05-16T08:18:22.442Z,94.70
2023-05-16T08:20:51.293Z,94.70
2023-05-16T08:23:21.325Z,94.80
2023-05-16T08:25:49.506Z,94.50
2023-05-16T08:28:17.541Z,95.10
2023-05-16T08:30:47.846Z,94.50
2023-05-16T08:33:17.534Z,94.50
2023-05-16T08:35:46.322Z,95.20
2023-05-16T08:38:14.350Z,95.50
2023-05-16T08:40:43.875Z,95.60
2023-05-16T08:43:12.238Z,94.60
2023-05-16T08:45:41.675Z,95.20
2023-05-16T08:48:12.003Z,95.40
2023-05-16T08:50:42.857Z,95.20
2023-05-16T08:53:13.020Z,94.90
2023-05-16T08:55:43.160Z,95.10
2023-05-16T08:58:12.143Z,95.10
2023-05-16T09:00:40.831Z,95.20
2023-05-16T09:03:09.412Z,95.10
2023-05-16T09:05:37.752Z,94.80
2023-05-16T09:08:07.263Z,95.00
2023-05-16T09:10:35.359Z,94.80
2023-05-16T09:13:04.439Z,94.90
2023-05-16T09:15:34.388Z,94.70
2023-05-16T09:18:03.131Z,94.80
2023-05-16T09:20:31.495Z,95.30
2023-05-16T09:23:01.126Z,95.30
2023-05-16T09:25:32.557Z,95.40
2023-05-16T09:28:03.383Z,95.50
2023-05-16T09:30:34.942Z,94.90
2023-05-16T09:33:03.493Z,95.30
2023-05-16T09:38:04.171Z,95.20
2023-05-16T09:40:33.571Z,95.50
2023-05-16T09:43:06.275Z,95.00
2023-05-16T09:45:34.913Z,95.20
2023-05-16T09:48:08.050Z,95.90
2023-05-16T09:50:37.376Z,95.50
2023-05-16T09:53:06.196Z,95.20
2023-05-16T09:55:35.787Z,95.40
2023-05-16T09:58:03.909Z,95.30
2023-05-16T10:00:33.156Z,95.40
2023-05-16T10:03:05.332Z,95.50
2023-05-16T10:05:34.629Z,95.60
2023-05-16T10:08:04.683Z,95.80
2023-05-16T10:10:37.363Z,95.20
2023-05-16T10:13:08.198Z,95.40
2023-05-16T10:15:38.492Z,95.70
2023-05-16T10:18:12.122Z,95.50
2023-05-16T10:20:43.337Z,96.20
2023-05-16T10:23:17.420Z,96.10
2023-05-16T10:25:48.368Z,95.30
2023-05-16T10:28:17.490Z,95.40
2023-05-16T10:30:47.723Z,95.60
2023-05-16T10:33:17.991Z,95.30
2023-05-16T10:35:47.466Z,95.00
2023-05-16T10:38:18.375Z,95.20
2023-05-16T10:40:49.434Z,94.10
2023-05-16T10:43:25.344Z,95.10
2023-05-16T10:45:56.690Z,94.90
2023-05-16T10:48:34.916Z,94.50
2023-05-16T10:51:04.394Z,93.90
2023-05-16T10:53:33.977Z,94.50
2023-05-16T10:56:11.358Z,94.50
2023-05-16T10:58:43.645Z,94.70
2023-05-16T11:01:24.861Z,94.80
2023-05-16T11:04:11.081Z,94.80
2023-05-16T11:06:56.669Z,94.50
2023-05-16T11:09:28.180Z,94.40
2023-05-16T11:12:02.871Z,94.90
2023-05-16T11:14:38.176Z,94.50
2023-05-16T11:17:10.546Z,94.60
2023-05-16T11:19:43.209Z,94.80
2023-05-16T11:22:23.111Z,95.10
2023-05-16T11:25:01.413Z,95.60
2023-05-16T11:27:32.592Z,95.40
2023-05-16T11:30:04.419Z,95.10
2023-05-16T11:32:34.634Z,95.10
2023-05-16T11:35:03.928Z,95.00
2023-05-16T11:37:32.180Z,96.00
2023-05-16T11:40:01.299Z,95.40
2023-05-16T11:42:36.557Z,95.90
2023-05-16T11:45:06.545Z,96.10
2023-05-16T11:47:34.966Z,96.30
2023-05-16T11:50:05.648Z,96.80
2023-05-16T11:52:34.150Z,97.10
2023-05-16T11:55:02.879Z,97.80
2023-05-16T11:57:32.824Z,98.20
2023-05-16T12:00:07.985Z,98.60
2023-05-16T12:02:36.180Z,98.50
2023-05-16T12:05:10.049Z,98.80
2023-05-16T12:07:38.371Z,99.90
2023-05-16T12:10:07.781Z,99.80
2023-05-16T12:12:37.826Z,99.70
2023-05-16T12:15:07.563Z,99.90
2023-05-16T12:17:36.689Z,99.90
2023-05-16T12:20:06.696Z,99.90
2023-05-16T12:22:35.088Z,99.90
2023-05-16T12:25:25.699Z,99.90
2023-05-16T12:27:56.571Z,99.90
2023-05-16T12:30:25.814Z,99.90
2023-05-16T12:32:57.239Z,99.90
2023-05-16T12:35:26.232Z,99.90
2023-05-16T12:37:55.901Z,99.90
2023-05-16T12:40:24.335Z,99.90
2023-05-16T12:42:52.725Z,99.90
2023-05-16T12:45:23.736Z,99.90
2023-05-16T12:47:52.021Z,99.90
2023-05-16T12:50:20.498Z,99.90
2023-05-16T12:52:50.513Z,99.90
2023-05-16T12:55:18.946Z,99.90
2023-05-16T12:57:48.611Z,99.90
2023-05-16T13:00:19.848Z,99.90
2023-05-16T13:02:49.829Z,99.90
2023-05-16T13:05:18.528Z,99.90
2023-05-16T13:07:46.551Z,99.90
2023-05-16T13:10:14.698Z,99.90
2023-05-16T13:12:43.063Z,99.90
2023-05-16T13:15:12.773Z,99.90
2023-05-16T13:17:43.425Z,99.90
2023-05-16T13:20:14.751Z,99.90
2023-05-16T13:22:43.670Z,99.90
2023-05-16T13:25:12.423Z,99.90
2023-05-16T13:27:40.637Z,99.90
2023-05-16T13:30:09.711Z,99.90
2023-05-16T13:32:38.157Z,99.90
2023-05-16T13:35:06.968Z,99.90
2023-05-16T13:37:36.694Z,99.90
2023-05-16T13:40:05.350Z,99.90
2023-05-16T13:42:33.352Z,99.90
2023-05-16T13:45:01.437Z,99.90
2023-05-16T13:47:29.625Z,99.90
2023-05-16T13:49:57.717Z,99.90
2023-05-16T13:52:25.727Z,99.90
2023-05-16T13:54:55.118Z,99.90
2023-05-16T13:57:23.251Z,99.90
2023-05-16T14:02:22.247Z,99.90
2023-05-16T14:04:50.376Z,99.90
2023-05-16T14:07:18.413Z,99.90
2023-05-16T14:09:46.602Z,99.90
2023-05-16T14:12:16.019Z,99.90
2023-05-16T14:14:44.293Z,99.90
2023-05-16T14:17:12.398Z,99.90
2023-05-16T14:19:40.409Z,99.90
2023-05-16T14:22:09.004Z,99.90
2023-05-16T14:24:37.086Z,99.90
2023-05-16T14:27:05.327Z,99.90
2023-05-16T14:29:34.712Z,99.90
2023-05-16T14:32:02.979Z,99.90
2023-05-16T14:34:31.536Z,99.90
2023-05-16T14:36:59.566Z,99.90
2023-05-16T14:39:28.102Z,99.90
2023-05-16T14:41:56.165Z,99.90
2023-05-16T14:44:24.845Z,99.90
2023-05-16T14:46:55.400Z,99.90
2023-05-16T14:49:23.414Z,99.90
2023-05-16T14:51:51.697Z,99.90
2023-05-16T14:54:19.765Z,99.90
2023-05-16T14:56:47.922Z,99.90
2023-05-16T14:59:16.028Z,99.90
2023-05-16T15:01:44.053Z,99.90
2023-05-16T15:04:13.558Z,99.90
2023-05-16T15:06:41.701Z,99.90
2023-05-16T15:09:09.848Z,99.90
2023-05-16T15:11:37.965Z,99.90
2023-05-16T15:14:06.113Z,99.90
2023-05-16T15:16:34.247Z,99.90
2023-05-16T15:19:02.605Z,99.90
2023-05-16T15:21:33.663Z,99.90
2023-05-16T15:24:02.156Z,99.90
2023-05-16T15:26:31.056Z,99.90
2023-05-16T15:28:59.525Z,99.90
2023-05-16T15:31:27.769Z,99.90
2023-05-16T15:33:55.910Z,99.90
2023-05-16T15:36:25.031Z,99.90
2023-05-16T15:38:54.445Z,99.90
2023-05-16T15:41:37.339Z,99.90
2023-05-16T15:44:11.459Z,99.90
2023-05-16T15:46:39.498Z,99.90
2023-05-16T15:49:09.353Z,99.90
2023-05-16T15:51:37.354Z,99.90
2023-05-16T15:54:06.776Z,99.90
2023-05-16T15:56:34.873Z,99.90
2023-05-16T15:59:02.867Z,99.90
2023-05-16T16:01:30.933Z,99.90
2023-05-16T16:03:59.072Z,99.90
2023-05-16T16:06:27.585Z,99.90
2023-05-16T16:08:55.702Z,99.90
2023-05-16T16:11:25.168Z,99.90
2023-05-16T16:13:53.172Z,99.90
2023-05-16T16:16:22.275Z,99.90
2023-05-16T16:18:50.708Z,99.90
2023-05-16T16:21:18.799Z,99.90
2023-05-16T16:23:46.952Z,99.90
2023-05-16T16:26:14.925Z,99.90
2023-05-16T16:28:44.299Z,99.90
2023-05-16T16:31:12.877Z,99.90
2023-05-16T16:33:42.215Z,99.90
2023-05-16T16:36:10.963Z,99.90
2023-05-16T16:38:39.051Z,99.90
2023-05-16T16:41:07.155Z,99.90
2023-05-16T16:43:35.496Z,99.90
2023-05-16T16:46:04.914Z,99.90
2023-05-16T16:48:34.201Z,99.90
2023-05-16T16:51:02.543Z,99.90
2023-05-16T16:53:30.789Z,99.90
2023-05-16T16:55:58.877Z,99.90
2023-05-16T16:58:26.938Z,99.90
2023-05-16T17:00:55.127Z,99.90
2023-05-16T17:03:25.514Z,99.90
2023-05-16T17:05:54.276Z,99.90
2023-05-16T17:08:22.527Z,99.90
2023-05-16T17:10:51.086Z,99.90
2023-05-16T17:13:19.147Z,99.90
2023-05-16T17:15:47.884Z,99.90
2023-05-16T17:18:15.928Z,99.90
2023-05-16T17:20:45.377Z,99.90
2023-05-16T17:23:13.382Z,99.90
2023-05-16T17:25:43.132Z,99.90
2023-05-16T17:28:11.366Z,99.90
2023-05-16T17:30:39.524Z,99.90
2023-05-16T17:33:09.519Z,99.90
2023-05-16T17:35:37.798Z,99.90
2023-05-16T17:38:07.500Z,99.90
2023-05-16T17:40:35.555Z,99.90
2023-05-16T17:43:03.639Z,99.90
2023-05-16T17:45:31.978Z,99.90
2023-05-16T17:48:03.208Z,99.90
2023-05-16T17:50:32.550Z,99.90
2023-05-16T17:53:02.299Z,99.90
2023-05-16T17:55:33.473Z,99.90
2023-05-16T17:58:01.801Z,99.90
2023-05-16T18:00:30.298Z,99.90
2023-05-16T18:02:58.501Z,99.90
2023-05-16T18:05:26.997Z,99.90
2023-05-16T18:07:55.689Z,99.90
2023-05-16T18:10:25.601Z,99.90
2023-05-16T18:12:56.732Z,99.90
2023-05-16T18:15:24.788Z,99.90
2023-05-16T18:17:53.057Z,99.90
2023-05-16T18:20:21.845Z,99.90
2023-05-16T18:22:51.270Z,99.90
2023-05-16T18:25:19.717Z,99.90
2023-05-16T18:27:47.800Z,99.90
2023-05-16T18:30:17.213Z,99.90
2023-05-16T18:32:45.585Z,99.90
2023-05-16T18:35:14.123Z,99.90
2023-05-16T18:37:44.351Z,99.90
2023-05-16T18:40:13.770Z,99.90
2023-05-16T18:42:41.776Z,99.90
2023-05-16T18:45:10.606Z,99.90
2023-05-16T18:47:40.211Z,99.90
2023-05-16T18:50:09.530Z,99.90
2023-05-16T18:52:40.324Z,99.90
2023-05-16T18:55:09.207Z,99.90
2023-05-16T18:57:37.306Z,99.90
2023-05-16T19:00:07.345Z,99.90
2023-05-16T19:05:11.452Z,99.90
2023-05-16T19:07:40.073Z,99.90
2023-05-16T19:10:09.374Z,99.90
2023-05-16T19:12:37.465Z,99.90
2023-05-16T19:15:06.392Z,99.90
2023-05-16T19:17:34.520Z,99.90
2023-05-16T19:20:03.195Z,99.90
2023-05-16T19:22:32.661Z,99.90
2023-05-16T19:25:00.632Z,99.90
2023-05-16T19:27:29.417Z,99.90
2023-05-16T19:29:57.874Z,99.90
2023-05-16T19:32:25.910Z,99.90
2023-05-16T19:34:54.088Z,99.90
2023-05-16T19:37:22.271Z,99.90
2023-05-16T19:39:51.921Z,99.90
2023-05-16T19:42:20.377Z,99.90
2023-05-16T19:44:48.401Z,99.90
2023-05-16T19:47:16.558Z,99.90
2023-05-16T19:49:44.812Z,99.90
2023-05-16T19:52:14.057Z,99.90
2023-05-16T19:54:42.405Z,99.90
2023-05-16T19:57:11.823Z,99.90
2023-05-16T19:59:40.507Z,99.90
2023-05-16T20:02:09.259Z,99.90
2023-05-16T20:04:37.385Z,99.90
2023-05-16T20:07:05.683Z,99.90
2023-05-16T20:09:34.018Z,99.90
2023-05-16T20:12:02.707Z,99.90
2023-05-16T20:14:32.350Z,99.90
2023-05-16T20:17:00.525Z,99.90
2023-05-16T20:19:30.961Z,99.90
2023-05-16T20:21:59.228Z,99.90
2023-05-16T20:24:27.254Z,99.90
2023-05-16T20:26:56.009Z,99.90
2023-05-16T20:29:24.295Z,99.90
2023-05-16T20:31:53.616Z,99.90
2023-05-16T20:34:21.657Z,99.90
2023-05-16T20:36:49.638Z,99.90
2023-05-16T20:39:17.676Z,99.90
2023-05-16T20:41:45.666Z,99.90
2023-05-16T20:44:13.723Z,99.90
2023-05-16T20:46:43.185Z,99.90
2023-05-16T20:49:12.678Z,99.90
2023-05-16T20:51:40.765Z,99.90
2023-05-16T20:54:08.997Z,99.90
2023-05-16T20:56:37.052Z,99.90
2023-05-16T20:59:05.084Z,99.90
2023-05-16T21:01:33.365Z,99.90
2023-05-16T21:04:01.604Z,99.90
2023-05-16T21:06:31.320Z,99.90
2023-05-16T21:08:59.321Z,99.90
2023-05-16T21:11:28.545Z,99.90
2023-05-16T21:13:56.573Z,99.90
2023-05-16T21:16:24.819Z,99.90
2023-05-16T21:18:53.259Z,99.90
2023-05-16T21:21:21.437Z,99.90
2023-05-16T21:23:50.844Z,99.90
2023-05-16T21:26:18.844Z,99.90
2023-05-16T21:31:19.495Z,99.90
2023-05-16T21:33:47.529Z,99.90
2023-05-16T21:36:15.610Z,99.90
2023-05-16T21:38:43.589Z,99.90
2023-05-16T21:41:13.270Z,99.90
2023-05-16T21:43:41.764Z,99.90
2023-05-16T21:46:09.776Z,99.90
2023-05-16T21:48:37.833Z,99.90
2023-05-16T21:51:06.029Z,99.90
2023-05-16T21:53:34.444Z,99.90
2023-05-16T21:56:02.457Z,99.90
2023-05-16T21:58:31.863Z,99.90
2023-05-16T22:01:00.041Z,99.90
2023-05-16T22:03:28.141Z,99.90
2023-05-16T22:05:57.954Z,99.90
2023-05-16T22:08:26.046Z,99.90
2023-05-16T22:10:54.074Z,99.90
2023-05-16T22:13:22.151Z,99.90
2023-05-16T22:16:03.218Z,99.90
2023-05-16T22:18:32.870Z,99.90
2023-05-16T22:21:01.519Z,99.90
2023-05-16T22:23:29.603Z,99.90
2023-05-16T22:25:57.585Z,99.90
2023-05-16T22:28:26.152Z,99.90
2023-05-16T22:30:55.626Z,99.90
2023-05-16T22:33:24.045Z,99.90
2023-05-16T22:35:52.269Z,99.90
2023-05-16T22:38:20.395Z,99.90
2023-05-16T22:40:48.450Z,99.90
2023-05-16T22:43:16.616Z,99.90
2023-05-16T22:45:44.778Z,99.90
2023-05-16T22:48:14.273Z,99.90
2023-05-16T22:50:42.369Z,99.90
2023-05-16T22:53:10.385Z,99.90
2023-05-16T22:55:38.906Z,99.90
2023-05-16T22:58:06.957Z,99.90
2023-05-16T23:00:35.026Z,99.90
2023-05-16T23:03:03.045Z,99.90
2023-05-16T23:05:32.563Z,99.90
2023-05-16T23:08:00.801Z,99.90
2023-05-16T23:10:28.837Z,99.90
2023-05-16T23:12:57.388Z,99.90
2023-05-16T23:15:25.744Z,99.90
2023-05-16T23:17:53.917Z,99.90
2023-05-16T23:20:22.564Z,99.90
2023-05-16T23:22:51.928Z,99.90
2023-05-16T23:25:20.272Z,99.90
2023-05-16T23:27:48.298Z,99.90
2023-05-16T23:30:17.019Z,99.90
2023-05-16T23:32:45.071Z,99.90
2023-05-16T23:35:13.279Z,99.90
2023-05-16T23:37:41.364Z,99.90
2023-05-16T23:40:11.697Z,99.90
2023-05-16T23:42:40.780Z,99.90
2023-05-16T23:45:10.171Z,99.90
2023-05-16T23:47:38.266Z,99.90
2023-05-16T23:50:07.310Z,99.90
2023-05-16T23:52:35.416Z,99.90
2023-05-16T23:55:03.490Z,99.90
2023-05-16T23:57:32.919Z,99.90
